Schedule Details

Flight Number: CPX317
Departure: Portland International Airport (KPDX) at N/A
Arrival: Phoenix Sky Harbor International Airport (KPHX) at N/A
Route: BTG J159 DSD REO J523 ELY WINEN Q35 CORKR TENTS BRUSR1


Current Weather Information
KPDX 192153Z 22009KT 10SM -RA BKN019 OVC032 07/02 A3017 RMK AO2 RAB44 SLP216 P0000 T00670022
KPHX 192151Z 28014G19KT 10SM BKN070 12/M07 A2997 RMK AO2 SLP147 T01221072